sensor_id;sensor_type;location;lat;lon;timestamp;pressure;altitude;pressure_sealevel;temperature;humidity
72262;BME280;60173;52.112;8.648;2023-05-01T00:01:10;100916.72;;;4.81;85.02
72262;BME280;60173;52.112;8.648;2023-05-01T00:03:37;100917.56;;;5.04;84.29
72262;BME280;60173;52.112;8.648;2023-05-01T00:06:04;100917.03;;;5.24;83.47
72262;BME280;60173;52.112;8.648;2023-05-01T00:08:31;100913.50;;;5.01;83.42
72262;BME280;60173;52.112;8.648;2023-05-01T00:11:02;100913.88;;;5.10;82.96
72262;BME280;60173;52.112;8.648;2023-05-01T00:13:28;100906.41;;;5.17;82.89
72262;BME280;60173;52.112;8.648;2023-05-01T00:15:55;100897.84;;;5.20;81.91
72262;BME280;60173;52.112;8.648;2023-05-01T00:18:21;100910.41;;;5.36;79.65
72262;BME280;60173;52.112;8.648;2023-05-01T00:20:48;100890.34;;;5.49;79.01
72262;BME280;60173;52.112;8.648;2023-05-01T00:23:14;100893.31;;;5.48;78.06
72262;BME280;60173;52.112;8.648;2023-05-01T00:25:40;100891.34;;;5.65;77.07
72262;BME280;60173;52.112;8.648;2023-05-01T00:28:07;100887.84;;;5.70;76.10
72262;BME280;60173;52.112;8.648;2023-05-01T00:30:33;100886.53;;;5.72;75.44
72262;BME280;60173;52.112;8.648;2023-05-01T00:33:00;100888.41;;;5.72;75.31
72262;BME280;60173;52.112;8.648;2023-05-01T00:35:28;100879.22;;;5.68;75.09
72262;BME280;60173;52.112;8.648;2023-05-01T00:37:55;100886.00;;;5.70;75.11
72262;BME280;60173;52.112;8.648;2023-05-01T00:40:21;100882.13;;;5.61;76.25
72262;BME280;60173;52.112;8.648;2023-05-01T00:42:47;100879.69;;;5.59;75.96
72262;BME280;60173;52.112;8.648;2023-05-01T00:45:13;100881.97;;;5.46;75.55
72262;BME280;60173;52.112;8.648;2023-05-01T00:47:40;100878.16;;;5.41;76.11
72262;BME280;60173;52.112;8.648;2023-05-01T00:50:07;100872.97;;;5.62;75.63
72262;BME280;60173;52.112;8.648;2023-05-01T00:52:33;100866.44;;;5.58;75.56
72262;BME280;60173;52.112;8.648;2023-05-01T00:55:00;100871.47;;;5.44;75.65
72262;BME280;60173;52.112;8.648;2023-05-01T00:57:27;100875.50;;;5.47;75.74
72262;BME280;60173;52.112;8.648;2023-05-01T00:59:53;100871.63;;;5.37;76.21
72262;BME280;60173;52.112;8.648;2023-05-01T01:02:20;100869.97;;;5.31;76.53
72262;BME280;60173;52.112;8.648;2023-05-01T01:04:46;100854.38;;;5.33;76.47
72262;BME280;60173;52.112;8.648;2023-05-01T01:07:18;100848.34;;;5.26;76.56
72262;BME280;60173;52.112;8.648;2023-05-01T01:09:52;100858.06;;;5.27;76.77
72262;BME280;60173;52.112;8.648;2023-05-01T01:12:30;100848.34;;;5.26;76.07
72262;BME280;60173;52.112;8.648;2023-05-01T01:15:04;100841.66;;;5.29;74.87
72262;BME280;60173;52.112;8.648;2023-05-01T01:20:29;100839.16;;;5.22;74.85
72262;BME280;60173;52.112;8.648;2023-05-01T01:28:59;100820.16;;;5.07;75.34
72262;BME280;60173;52.112;8.648;2023-05-01T01:32:02;100820.22;;;4.90;76.14
72262;BME280;60173;52.112;8.648;2023-05-01T01:34:39;100826.25;;;4.75;77.36
72262;BME280;60173;52.112;8.648;2023-05-01T01:37:29;100815.22;;;4.76;77.41
72262;BME280;60173;52.112;8.648;2023-05-01T01:40:05;100815.97;;;4.72;78.10
72262;BME280;60173;52.112;8.648;2023-05-01T01:42:45;100818.34;;;4.68;78.14
72262;BME280;60173;52.112;8.648;2023-05-01T01:45:18;100806.97;;;4.83;77.44
72262;BME280;60173;52.112;8.648;2023-05-01T01:47:47;100806.84;;;4.73;77.49
72262;BME280;60173;52.112;8.648;2023-05-01T01:50:15;100806.97;;;4.61;78.82
72262;BME280;60173;52.112;8.648;2023-05-01T01:52:44;100814.88;;;4.51;79.50
72262;BME280;60173;52.112;8.648;2023-05-01T01:55:13;100800.13;;;4.53;78.94
72262;BME280;60173;52.112;8.648;2023-05-01T01:57:40;100805.47;;;4.48;78.90
72262;BME280;60173;52.112;8.648;2023-05-01T02:00:09;100802.50;;;4.50;79.02
72262;BME280;60173;52.112;8.648;2023-05-01T02:02:37;100795.38;;;4.61;78.71
72262;BME280;60173;52.112;8.648;2023-05-01T02:05:06;100796.78;;;4.63;78.12
72262;BME280;60173;52.112;8.648;2023-05-01T02:07:34;100797.38;;;4.70;77.30
72262;BME280;60173;52.112;8.648;2023-05-01T02:10:03;100788.31;;;4.76;76.63
72262;BME280;60173;52.112;8.648;2023-05-01T02:12:30;100790.31;;;4.86;76.39
72262;BME280;60173;52.112;8.648;2023-05-01T02:14:59;100776.50;;;5.05;75.02
72262;BME280;60173;52.112;8.648;2023-05-01T02:17:26;100773.97;;;5.20;73.47
72262;BME280;60173;52.112;8.648;2023-05-01T02:19:54;100776.16;;;5.50;72.23
72262;BME280;60173;52.112;8.648;2023-05-01T02:22:23;100771.63;;;5.61;70.77
72262;BME280;60173;52.112;8.648;2023-05-01T02:24:53;100772.53;;;5.72;70.71
72262;BME280;60173;52.112;8.648;2023-05-01T02:27:58;100773.56;;;5.65;71.20
72262;BME280;60173;52.112;8.648;2023-05-01T02:30:26;100773.56;;;5.65;71.19
72262;BME280;60173;52.112;8.648;2023-05-01T02:32:53;100766.25;;;5.61;71.75
72262;BME280;60173;52.112;8.648;2023-05-01T02:35:19;100763.56;;;5.61;71.96
72262;BME280;60173;52.112;8.648;2023-05-01T02:37:45;100758.16;;;5.61;71.99
72262;BME280;60173;52.112;8.648;2023-05-01T02:40:12;100756.25;;;5.56;71.41
72262;BME280;60173;52.112;8.648;2023-05-01T02:42:41;100744.22;;;5.69;70.96
72262;BME280;60173;52.112;8.648;2023-05-01T02:45:09;100746.38;;;5.67;70.46
72262;BME280;60173;52.112;8.648;2023-05-01T02:47:41;100748.03;;;5.73;70.49
72262;BME280;60173;52.112;8.648;2023-05-01T02:50:09;100746.56;;;5.60;70.68
72262;BME280;60173;52.112;8.648;2023-05-01T02:52:36;100740.09;;;5.56;71.47
72262;BME280;60173;52.112;8.648;2023-05-01T02:55:03;100743.00;;;5.50;72.01
72262;BME280;60173;52.112;8.648;2023-05-01T02:57:32;100742.41;;;5.42;72.58
72262;BME280;60173;52.112;8.648;2023-05-01T02:59:58;100736.97;;;5.37;72.89
72262;BME280;60173;52.112;8.648;2023-05-01T03:02:25;100731.00;;;5.30;73.37
72262;BME280;60173;52.112;8.648;2023-05-01T03:04:51;100722.81;;;5.20;73.86
72262;BME280;60173;52.112;8.648;2023-05-01T03:07:17;100720.16;;;5.25;73.53
72262;BME280;60173;52.112;8.648;2023-05-01T03:09:43;100721.25;;;5.29;72.97
72262;BME280;60173;52.112;8.648;2023-05-01T03:12:10;100722.28;;;5.18;73.61
72262;BME280;60173;52.112;8.648;2023-05-01T03:14:36;100722.16;;;5.08;74.33
72262;BME280;60173;52.112;8.648;2023-05-01T03:17:02;100715.06;;;4.96;74.68
72262;BME280;60173;52.112;8.648;2023-05-01T03:19:29;100701.19;;;5.10;73.76
72262;BME280;60173;52.112;8.648;2023-05-01T03:21:55;100704.41;;;5.07;73.61
72262;BME280;60173;52.112;8.648;2023-05-01T03:24:22;100701.66;;;5.02;73.87
72262;BME280;60173;52.112;8.648;2023-05-01T03:26:49;100696.78;;;4.98;73.79
72262;BME280;60173;52.112;8.648;2023-05-01T03:29:15;100691.38;;;4.98;73.94
72262;BME280;60173;52.112;8.648;2023-05-01T03:31:41;100693.72;;;4.90;74.20
72262;BME280;60173;52.112;8.648;2023-05-01T03:34:08;100697.78;;;4.92;74.89
72262;BME280;60173;52.112;8.648;2023-05-01T03:36:35;100693.94;;;4.83;75.10
72262;BME280;60173;52.112;8.648;2023-05-01T03:39:01;100700.44;;;4.87;74.78
72262;BME280;60173;52.112;8.648;2023-05-01T03:41:28;100694.53;;;4.90;74.49
72262;BME280;60173;52.112;8.648;2023-05-01T03:43:54;100684.88;;;4.94;74.28
72262;BME280;60173;52.112;8.648;2023-05-01T03:46:20;100686.53;;;4.95;73.87
72262;BME280;60173;52.112;8.648;2023-05-01T03:48:47;100678.50;;;5.01;73.40
72262;BME280;60173;52.112;8.648;2023-05-01T03:51:13;100680.69;;;5.09;73.30
72262;BME280;60173;52.112;8.648;2023-05-01T03:53:39;100679.66;;;5.15;72.95
72262;BME280;60173;52.112;8.648;2023-05-01T03:56:06;100674.03;;;5.16;72.75
72262;BME280;60173;52.112;8.648;2023-05-01T03:58:32;100673.41;;;5.04;73.18
72262;BME280;60173;52.112;8.648;2023-05-01T04:00:58;100663.44;;;5.05;73.84
72262;BME280;60173;52.112;8.648;2023-05-01T04:03:25;100663.97;;;5.02;73.54
72262;BME280;60173;52.112;8.648;2023-05-01T04:05:52;100659.38;;;5.02;73.26
72262;BME280;60173;52.112;8.648;2023-05-01T04:08:18;100663.50;;;5.15;73.20
72262;BME280;60173;52.112;8.648;2023-05-01T04:10:44;100664.66;;;5.19;72.88
72262;BME280;60173;52.112;8.648;2023-05-01T04:13:11;100663.06;;;5.23;72.31
72262;BME280;60173;52.112;8.648;2023-05-01T04:15:37;100674.16;;;5.32;72.12
72262;BME280;60173;52.112;8.648;2023-05-01T04:18:03;100667.41;;;5.29;72.22
72262;BME280;60173;52.112;8.648;2023-05-01T04:20:30;100668.31;;;5.40;71.78
72262;BME280;60173;52.112;8.648;2023-05-01T04:22:56;100663.44;;;5.37;71.79
72262;BME280;60173;52.112;8.648;2023-05-01T04:25:22;100666.22;;;5.47;71.30
72262;BME280;60173;52.112;8.648;2023-05-01T04:27:49;100670.28;;;5.55;70.62
72262;BME280;60173;52.112;8.648;2023-05-01T04:30:15;100661.19;;;5.66;70.38
72262;BME280;60173;52.112;8.648;2023-05-01T04:32:42;100659.63;;;5.70;70.31
72262;BME280;60173;52.112;8.648;2023-05-01T04:35:08;100655.56;;;5.68;69.77
72262;BME280;60173;52.112;8.648;2023-05-01T04:37:35;100647.94;;;5.97;68.93
72262;BME280;60173;52.112;8.648;2023-05-01T04:40:01;100644.06;;;6.45;67.70
72262;BME280;60173;52.112;8.648;2023-05-01T04:42:31;100642.25;;;6.87;66.22
72262;BME280;60173;52.112;8.648;2023-05-01T04:44:57;100646.56;;;6.88;64.77
72262;BME280;60173;52.112;8.648;2023-05-01T04:47:23;100637.94;;;6.96;64.35
72262;BME280;60173;52.112;8.648;2023-05-01T04:49:50;100637.91;;;6.91;66.13
72262;BME280;60173;52.112;8.648;2023-05-01T04:52:16;100640.09;;;6.89;66.14
72262;BME280;60173;52.112;8.648;2023-05-01T04:54:42;100641.72;;;7.05;66.18
72262;BME280;60173;52.112;8.648;2023-05-01T04:57:09;100644.97;;;7.28;64.88
72262;BME280;60173;52.112;8.648;2023-05-01T04:59:35;100644.97;;;7.28;64.31
72262;BME280;60173;52.112;8.648;2023-05-01T05:02:01;100643.59;;;7.35;64.40
72262;BME280;60173;52.112;8.648;2023-05-01T05:04:28;100641.44;;;7.32;62.79
72262;BME280;60173;52.112;8.648;2023-05-01T05:06:54;100637.41;;;7.30;63.84
72262;BME280;60173;52.112;8.648;2023-05-01T05:09:20;100641.16;;;7.39;62.67
72262;BME280;60173;52.112;8.648;2023-05-01T05:11:47;100636.56;;;7.39;63.28
72262;BME280;60173;52.112;8.648;2023-05-01T05:14:13;100629.81;;;7.52;62.36
72262;BME280;60173;52.112;8.648;2023-05-01T05:16:39;100635.75;;;7.44;63.70
72262;BME280;60173;52.112;8.648;2023-05-01T05:19:06;100632.00;;;7.35;63.24
72262;BME280;60173;52.112;8.648;2023-05-01T05:21:32;100634.66;;;7.45;62.52
72262;BME280;60173;52.112;8.648;2023-05-01T05:23:59;100621.41;;;7.64;62.68
72262;BME280;60173;52.112;8.648;2023-05-01T05:26:25;100628.41;;;7.65;61.98
72262;BME280;60173;52.112;8.648;2023-05-01T05:28:52;100635.66;;;7.80;61.23
72262;BME280;60173;52.112;8.648;2023-05-01T05:31:18;100636.72;;;7.94;61.48
72262;BME280;60173;52.112;8.648;2023-05-01T05:33:44;100630.13;;;8.15;61.53
72262;BME280;60173;52.112;8.648;2023-05-01T05:36:11;100628.72;;;8.78;59.49
72262;BME280;60173;52.112;8.648;2023-05-01T05:38:37;100619.38;;;9.58;57.71
72262;BME280;60173;52.112;8.648;2023-05-01T05:41:03;100614.28;;;10.61;52.61
72262;BME280;60173;52.112;8.648;2023-05-01T05:43:30;100614.78;;;11.47;51.80
72262;BME280;60173;52.112;8.648;2023-05-01T05:45:57;100614.44;;;11.95;50.94
72262;BME280;60173;52.112;8.648;2023-05-01T05:48:24;100607.97;;;11.77;50.27
72262;BME280;60173;52.112;8.648;2023-05-01T05:50:50;100610.78;;;11.12;51.55
72262;BME280;60173;52.112;8.648;2023-05-01T05:53:19;100612.66;;;10.98;52.66
72262;BME280;60173;52.112;8.648;2023-05-01T05:55:48;100604.88;;;11.24;51.37
72262;BME280;60173;52.112;8.648;2023-05-01T05:58:14;100610.31;;;11.98;49.84
72262;BME280;60173;52.112;8.648;2023-05-01T06:00:41;100602.13;;;12.62;49.90
72262;BME280;60173;52.112;8.648;2023-05-01T06:03:07;100594.63;;;12.90;49.57
72262;BME280;60173;52.112;8.648;2023-05-01T06:05:33;100605.38;;;12.50;49.15
72262;BME280;60173;52.112;8.648;2023-05-01T06:08:00;100602.81;;;12.17;48.38
72262;BME280;60173;52.112;8.648;2023-05-01T06:10:26;100600.00;;;12.59;49.47
72262;BME280;60173;52.112;8.648;2023-05-01T06:12:52;100599.72;;;12.10;49.80
72262;BME280;60173;52.112;8.648;2023-05-01T06:15:29;100604.72;;;12.67;49.12
72262;BME280;60173;52.112;8.648;2023-05-01T06:17:56;100596.00;;;12.79;48.29
72262;BME280;60173;52.112;8.648;2023-05-01T06:20:22;100596.91;;;12.74;48.40
72262;BME280;60173;52.112;8.648;2023-05-01T06:22:49;100597.97;;;12.64;48.18
72262;BME280;60173;52.112;8.648;2023-05-01T06:25:15;100595.47;;;12.04;50.53
72262;BME280;60173;52.112;8.648;2023-05-01T06:27:41;100593.19;;;12.34;49.55
72262;BME280;60173;52.112;8.648;2023-05-01T06:30:08;100599.78;;;12.33;50.00
72262;BME280;60173;52.112;8.648;2023-05-01T06:32:35;100594.63;;;12.31;49.22
72262;BME280;60173;52.112;8.648;2023-05-01T06:35:01;100587.50;;;12.08;49.79
72262;BME280;60173;52.112;8.648;2023-05-01T06:37:27;100593.84;;;12.03;50.36
72262;BME280;60173;52.112;8.648;2023-05-01T06:39:54;100592.56;;;12.01;50.66
72262;BME280;60173;52.112;8.648;2023-05-01T06:42:20;100580.16;;;11.81;51.15
72262;BME280;60173;52.112;8.648;2023-05-01T06:44:47;100582.50;;;11.87;51.20
72262;BME280;60173;52.112;8.648;2023-05-01T06:47:13;100581.25;;;12.21;50.51
72262;BME280;60173;52.112;8.648;2023-05-01T06:49:40;100577.06;;;12.24;50.30
72262;BME280;60173;52.112;8.648;2023-05-01T06:52:06;100585.75;;;12.26;50.38
72262;BME280;60173;52.112;8.648;2023-05-01T06:54:32;100585.19;;;12.51;50.18
72262;BME280;60173;52.112;8.648;2023-05-01T06:56:59;100576.25;;;12.73;49.62
72262;BME280;60173;52.112;8.648;2023-05-01T06:59:25;100576.31;;;12.82;48.38
72262;BME280;60173;52.112;8.648;2023-05-01T07:01:51;100577.44;;;12.89;49.09
72262;BME280;60173;52.112;8.648;2023-05-01T07:04:18;100569.97;;;12.50;49.58
72262;BME280;60173;52.112;8.648;2023-05-01T07:06:44;100580.78;;;12.64;49.65
72262;BME280;60173;52.112;8.648;2023-05-01T07:09:11;100583.75;;;12.17;50.37
72262;BME280;60173;52.112;8.648;2023-05-01T07:11:37;100580.03;;;12.50;51.07
72262;BME280;60173;52.112;8.648;2023-05-01T07:14:04;100575.91;;;12.75;49.68
72262;BME280;60173;52.112;8.648;2023-05-01T07:16:30;100577.16;;;12.69;49.82
72262;BME280;60173;52.112;8.648;2023-05-01T07:18:57;100572.31;;;12.65;49.94
72262;BME280;60173;52.112;8.648;2023-05-01T07:21:23;100567.91;;;13.01;49.92
72262;BME280;60173;52.112;8.648;2023-05-01T07:23:49;100577.72;;;13.02;50.16
72262;BME280;60173;52.112;8.648;2023-05-01T07:26:16;100570.63;;;13.23;48.32
72262;BME280;60173;52.112;8.648;2023-05-01T07:28:42;100570.97;;;13.30;49.48
72262;BME280;60173;52.112;8.648;2023-05-01T07:31:08;100569.22;;;13.03;49.46
72262;BME280;60173;52.112;8.648;2023-05-01T07:33:35;100571.25;;;12.98;50.65
72262;BME280;60173;52.112;8.648;2023-05-01T07:36:02;100563.81;;;13.34;49.54
72262;BME280;60173;52.112;8.648;2023-05-01T07:38:29;100564.28;;;13.85;47.34
72262;BME280;60173;52.112;8.648;2023-05-01T07:40:56;100568.94;;;13.85;48.37
72262;BME280;60173;52.112;8.648;2023-05-01T07:43:22;100563.56;;;14.19;47.77
72262;BME280;60173;52.112;8.648;2023-05-01T07:45:59;100552.03;;;14.57;47.25
72262;BME280;60173;52.112;8.648;2023-05-01T07:48:27;100553.28;;;14.86;46.98
72262;BME280;60173;52.112;8.648;2023-05-01T07:50:54;100546.69;;;14.96;47.27
72262;BME280;60173;52.112;8.648;2023-05-01T07:53:20;100546.81;;;15.08;47.28
72262;BME280;60173;52.112;8.648;2023-05-01T07:55:47;100536.69;;;15.47;44.59
72262;BME280;60173;52.112;8.648;2023-05-01T07:58:14;100545.47;;;15.61;45.76
72262;BME280;60173;52.112;8.648;2023-05-01T08:00:40;100542.34;;;15.42;44.43
72262;BME280;60173;52.112;8.648;2023-05-01T08:03:07;100549.06;;;15.53;44.94
72262;BME280;60173;52.112;8.648;2023-05-01T08:05:33;100546.09;;;15.75;45.02
72262;BME280;60173;52.112;8.648;2023-05-01T08:07:59;100541.84;;;15.87;45.48
72262;BME280;60173;52.112;8.648;2023-05-01T08:10:26;100540.44;;;16.22;45.30
72262;BME280;60173;52.112;8.648;2023-05-01T08:12:52;100537.72;;;16.22;44.89
72262;BME280;60173;52.112;8.648;2023-05-01T08:15:19;100534.72;;;16.36;44.50
72262;BME280;60173;52.112;8.648;2023-05-01T08:17:45;100539.28;;;16.65;43.86
72262;BME280;60173;52.112;8.648;2023-05-01T08:20:11;100533.97;;;16.48;44.00
72262;BME280;60173;52.112;8.648;2023-05-01T08:22:38;100536.50;;;16.53;43.83
72262;BME280;60173;52.112;8.648;2023-05-01T08:25:05;100535.16;;;16.59;45.05
72262;BME280;60173;52.112;8.648;2023-05-01T08:27:31;100530.94;;;16.62;44.21
72262;BME280;60173;52.112;8.648;2023-05-01T08:29:57;100530.94;;;16.62;44.62
72262;BME280;60173;52.112;8.648;2023-05-01T08:32:24;100529.13;;;16.66;44.55
72262;BME280;60173;52.112;8.648;2023-05-01T08:34:50;100530.50;;;16.72;45.20
72262;BME280;60173;52.112;8.648;2023-05-01T08:37:17;100529.25;;;17.03;43.62
72262;BME280;60173;52.112;8.648;2023-05-01T08:39:43;100530.53;;;17.05;43.81
72262;BME280;60173;52.112;8.648;2023-05-01T08:42:10;100520.34;;;17.06;43.42
72262;BME280;60173;52.112;8.648;2023-05-01T08:44:39;100519.94;;;16.83;45.90
72262;BME280;60173;52.112;8.648;2023-05-01T08:47:16;100519.75;;;16.88;44.75
72262;BME280;60173;52.112;8.648;2023-05-01T08:49:44;100524.63;;;17.40;44.53
72262;BME280;60173;52.112;8.648;2023-05-01T08:52:13;100530.00;;;17.61;44.63
72262;BME280;60173;52.112;8.648;2023-05-01T08:54:43;100526.69;;;17.68;44.39
72262;BME280;60173;52.112;8.648;2023-05-01T08:57:11;100517.31;;;17.32;43.12
72262;BME280;60173;52.112;8.648;2023-05-01T08:59:38;100513.31;;;17.54;43.77
72262;BME280;60173;52.112;8.648;2023-05-01T09:02:07;100509.41;;;17.55;43.00
72262;BME280;60173;52.112;8.648;2023-05-01T09:04:39;100513.63;;;17.65;43.13
72262;BME280;60173;52.112;8.648;2023-05-01T09:07:07;100512.97;;;17.80;43.42
72262;BME280;60173;52.112;8.648;2023-05-01T09:09:34;100508.47;;;17.75;44.36
72262;BME280;60173;52.112;8.648;2023-05-01T09:12:10;100509.28;;;17.76;44.25
72262;BME280;60173;52.112;8.648;2023-05-01T09:14:37;100506.00;;;17.82;43.78
72262;BME280;60173;52.112;8.648;2023-05-01T09:17:04;100496.94;;;17.57;43.46
72262;BME280;60173;52.112;8.648;2023-05-01T09:19:31;100506.78;;;17.58;43.91
72262;BME280;60173;52.112;8.648;2023-05-01T09:21:57;100504.50;;;17.48;45.44
72262;BME280;60173;52.112;8.648;2023-05-01T09:24:24;100501.53;;;17.53;45.21
72262;BME280;60173;52.112;8.648;2023-05-01T09:26:50;100496.03;;;17.53;43.88
72262;BME280;60173;52.112;8.648;2023-05-01T09:29:36;100503.72;;;17.48;44.70
72262;BME280;60173;52.112;8.648;2023-05-01T09:32:16;100499.47;;;17.50;44.38
72262;BME280;60173;52.112;8.648;2023-05-01T09:34:43;100501.53;;;17.53;44.55
72262;BME280;60173;52.112;8.648;2023-05-01T09:37:12;100491.66;;;17.77;44.55
72262;BME280;60173;52.112;8.648;2023-05-01T09:39:38;100492.09;;;18.03;43.45
72262;BME280;60173;52.112;8.648;2023-05-01T09:42:05;100490.50;;;17.90;44.06
72262;BME280;60173;52.112;8.648;2023-05-01T09:44:39;100487.72;;;18.15;43.45
72262;BME280;60173;52.112;8.648;2023-05-01T09:47:05;100485.03;;;18.30;43.21
72262;BME280;60173;52.112;8.648;2023-05-01T09:49:45;100485.91;;;18.63;43.07
72262;BME280;60173;52.112;8.648;2023-05-01T09:52:12;100485.13;;;18.34;43.26
72262;BME280;60173;52.112;8.648;2023-05-01T09:54:39;100480.22;;;18.56;42.95
72262;BME280;60173;52.112;8.648;2023-05-01T09:57:05;100472.00;;;18.71;43.80
72262;BME280;60173;52.112;8.648;2023-05-01T09:59:31;100476.38;;;18.88;42.54
72262;BME280;60173;52.112;8.648;2023-05-01T10:01:58;100479.25;;;19.08;41.65
72262;BME280;60173;52.112;8.648;2023-05-01T10:04:33;100469.13;;;19.12;43.25
72262;BME280;60173;52.112;8.648;2023-05-01T10:07:10;100477.56;;;19.19;40.63
72262;BME280;60173;52.112;8.648;2023-05-01T10:09:37;100477.25;;;18.48;42.43
72262;BME280;60173;52.112;8.648;2023-05-01T10:12:04;100470.88;;;18.88;41.96
72262;BME280;60173;52.112;8.648;2023-05-01T10:14:30;100470.81;;;18.85;42.44
72262;BME280;60173;52.112;8.648;2023-05-01T10:16:57;100472.75;;;18.84;42.07
72262;BME280;60173;52.112;8.648;2023-05-01T10:19:24;100467.09;;;18.65;42.02
72262;BME280;60173;52.112;8.648;2023-05-01T10:21:50;100461.91;;;18.47;43.92
72262;BME280;60173;52.112;8.648;2023-05-01T10:24:16;100472.34;;;18.26;42.80
72262;BME280;60173;52.112;8.648;2023-05-01T10:26:43;100467.69;;;18.02;43.25
72262;BME280;60173;52.112;8.648;2023-05-01T10:29:11;100465.81;;;18.18;46.25
72262;BME280;60173;52.112;8.648;2023-05-01T10:31:37;100469.22;;;17.87;45.86
72262;BME280;60173;52.112;8.648;2023-05-01T10:34:07;100466.78;;;18.38;46.32
72262;BME280;60173;52.112;8.648;2023-05-01T10:36:39;100457.25;;;18.64;43.93
72262;BME280;60173;52.112;8.648;2023-05-01T10:39:30;100458.59;;;18.70;43.74
72262;BME280;60173;52.112;8.648;2023-05-01T10:44:24;100449.66;;;18.89;42.82
72262;BME280;60173;52.112;8.648;2023-05-01T10:46:51;100458.22;;;19.15;44.12
72262;BME280;60173;52.112;8.648;2023-05-01T10:49:18;100450.38;;;19.17;40.57
72262;BME280;60173;52.112;8.648;2023-05-01T10:51:57;100441.06;;;18.90;40.07
72262;BME280;60173;52.112;8.648;2023-05-01T10:54:24;100449.59;;;19.17;43.67
72262;BME280;60173;52.112;8.648;2023-05-01T10:56:53;100444.03;;;19.49;43.33
72262;BME280;60173;52.112;8.648;2023-05-01T10:59:19;100433.97;;;19.72;41.52
72262;BME280;60173;52.112;8.648;2023-05-01T11:01:47;100434.69;;;19.69;39.83
72262;BME280;60173;52.112;8.648;2023-05-01T11:12:10;100430.25;;;18.10;41.48
72262;BME280;60173;52.112;8.648;2023-05-01T11:20:06;100408.22;;;19.84;39.87
72262;BME280;60173;52.112;8.648;2023-05-01T11:22:33;100404.53;;;20.15;39.03
72262;BME280;60173;52.112;8.648;2023-05-01T11:25:00;100398.28;;;20.38;39.43
72262;BME280;60173;52.112;8.648;2023-05-01T11:27:27;100402.91;;;20.53;38.45
72262;BME280;60173;52.112;8.648;2023-05-01T11:29:54;100407.78;;;20.21;42.08
72262;BME280;60173;52.112;8.648;2023-05-01T11:32:26;100400.97;;;20.15;39.05
72262;BME280;60173;52.112;8.648;2023-05-01T11:34:53;100398.16;;;20.11;38.50
72262;BME280;60173;52.112;8.648;2023-05-01T11:37:38;100395.56;;;19.63;38.81
72262;BME280;60173;52.112;8.648;2023-05-01T11:40:18;100400.13;;;19.91;39.22
72262;BME280;60173;52.112;8.648;2023-05-01T11:42:44;100395.19;;;20.20;40.32
72262;BME280;60173;52.112;8.648;2023-05-01T11:45:11;100403.88;;;20.64;38.51
72262;BME280;60173;52.112;8.648;2023-05-01T11:47:38;100396.50;;;19.68;38.28
72262;BME280;60173;52.112;8.648;2023-05-01T11:50:06;100392.50;;;20.46;36.52
72262;BME280;60173;52.112;8.648;2023-05-01T11:52:47;100386.59;;;20.67;37.64
72262;BME280;60173;52.112;8.648;2023-05-01T11:55:14;100387.47;;;20.71;38.14
72262;BME280;60173;52.112;8.648;2023-05-01T11:57:48;100388.19;;;20.68;35.84
72262;BME280;60173;52.112;8.648;2023-05-01T12:00:24;100383.00;;;20.44;37.93
72262;BME280;60173;52.112;8.648;2023-05-01T12:03:00;100375.25;;;20.30;36.93
72262;BME280;60173;52.112;8.648;2023-05-01T12:05:29;100380.84;;;20.53;39.81
72262;BME280;60173;52.112;8.648;2023-05-01T12:08:09;100377.88;;;19.45;37.44
72262;BME280;60173;52.112;8.648;2023-05-01T12:10:38;100373.69;;;20.09;37.18
72262;BME280;60173;52.112;8.648;2023-05-01T12:13:05;100369.38;;;19.89;37.55
72262;BME280;60173;52.112;8.648;2023-05-01T12:15:37;100376.09;;;20.53;36.57
72262;BME280;60173;52.112;8.648;2023-05-01T12:18:04;100377.56;;;20.47;37.03
72262;BME280;60173;52.112;8.648;2023-05-01T12:20:45;100381.88;;;21.17;36.23
72262;BME280;60173;52.112;8.648;2023-05-01T12:23:13;100369.19;;;20.63;36.31
72262;BME280;60173;52.112;8.648;2023-05-01T12:25:40;100373.44;;;20.57;39.89
72262;BME280;60173;52.112;8.648;2023-05-01T12:28:10;100378.22;;;20.83;39.55
72262;BME280;60173;52.112;8.648;2023-05-01T12:30:37;100367.91;;;20.80;36.68
72262;BME280;60173;52.112;8.648;2023-05-01T12:33:14;100366.75;;;20.58;37.49
72262;BME280;60173;52.112;8.648;2023-05-01T12:35:42;100370.00;;;20.64;36.63
72262;BME280;60173;52.112;8.648;2023-05-01T12:38:10;100370.81;;;20.91;36.33
72262;BME280;60173;52.112;8.648;2023-05-01T12:40:38;100366.22;;;20.98;38.37
72262;BME280;60173;52.112;8.648;2023-05-01T12:43:04;100366.13;;;21.18;37.01
72262;BME280;60173;52.112;8.648;2023-05-01T12:45:38;100362.69;;;21.55;37.16
72262;BME280;60173;52.112;8.648;2023-05-01T12:48:13;100357.00;;;21.71;35.50
72262;BME280;60173;52.112;8.648;2023-05-01T12:50:40;100354.03;;;21.56;34.58
72262;BME280;60173;52.112;8.648;2023-05-01T12:53:07;100349.78;;;21.62;35.22
72262;BME280;60173;52.112;8.648;2023-05-01T12:55:45;100347.66;;;21.52;36.58
72262;BME280;60173;52.112;8.648;2023-05-01T12:58:12;100351.19;;;21.22;34.10
72262;BME280;60173;52.112;8.648;2023-05-01T13:00:43;100347.63;;;21.22;35.79
72262;BME280;60173;52.112;8.648;2023-05-01T13:03:10;100351.19;;;21.22;34.64
72262;BME280;60173;52.112;8.648;2023-05-01T13:05:49;100348.09;;;21.28;34.77
72262;BME280;60173;52.112;8.648;2023-05-01T13:08:24;100345.00;;;21.59;36.71
72262;BME280;60173;52.112;8.648;2023-05-01T13:10:52;100343.97;;;21.71;36.92
72262;BME280;60173;52.112;8.648;2023-05-01T13:13:29;100346.34;;;21.42;36.42
72262;BME280;60173;52.112;8.648;2023-05-01T13:16:08;100343.00;;;21.90;37.19
72262;BME280;60173;52.112;8.648;2023-05-01T13:18:50;100331.38;;;22.48;36.37
72262;BME280;60173;52.112;8.648;2023-05-01T13:21:22;100329.41;;;22.49;36.83
72262;BME280;60173;52.112;8.648;2023-05-01T13:23:57;100337.00;;;23.11;35.43
72262;BME280;60173;52.112;8.648;2023-05-01T13:26:24;100332.69;;;23.17;36.36